Jerome, FL (34141)

4:59 PM EDT on March 30, 2015 (GMT -0400)
RAWS | | Change Station
CLOSE
Current Station
Personal Weather Station
Location: Jerome, FL
Elevation: 6 ft
Nearby Weather Stations

Elev 6 ft 25.90 °N, 81.32 °W | Updated 45 minutes ago

Partly Cloudy
Partly Cloudy
80 °F
Feels Like 79 °F
N
6
Wind Variable Wind from WSW
Gusts 16.0 mph

Today
High -- | Low -- °F
--% Chance of Precip.
Yesterday
High -- | Low -- °F
Precip. -- in
7:18 AM 7:40 PM
Waxing Gibbous, 82% visible
Pressure 30.18 in
Visibility 10.0 miles
Clouds Clear
Heat Index 79 °F
Dew Point 48 °F
Humidity 33%
Rainfall in
Snow Depth Not available.
UV 5 out of 12
Pollen 11.80 out of 12
Air Quality Not available.
Flu Activity Not available.
METAR KMKY 302055Z AUTO 29013G17KT 10SM CLR 24/09 A3018 RMK AO1 57020

More Conditions Fewer Conditions

Pressure 30.18 in
Visibility 10.0 miles
Clouds Clear
Heat Index 79 °F
Dew Point 48 °F
Humidity 33%
Rainfall in
Snow Depth Not available.
UV 5 out of 12
Pollen 11.80 out of 12
Air Quality Not available.
Flu Activity Not available.
METAR KMKY 302055Z AUTO 29013G17KT 10SM CLR 24/09 A3018 RMK AO1 57020

More Conditions Fewer Conditions

10-Day Weather Forecast

Almanac

Astronomy

Mar. 30, 2015 Rise Set
Actual Time
Civil Twilight
Nautical Twilight
Astronomical Twilight
Moon
Length of Visible Light
Length of Day
Tomorrow will be .
, % of the Moon is Illuminated

Today's Extremes

State Highs State Lows

Community

WunderPhotos

Upload Photos

1,809,584 photos uploaded!

WunderBlogs® & News

Nearby

Air Quality

  Air Quality AQ Index Pollutant
Not available.

Snow Depth

Station Depth Elevation

Earthquake Activity

City Distance Mag. Time & Date
Minimum magnitude displayed is 2.5.

Coastal Water Temperatures

Place Temperature

Stations

Nearby Weather Stations

Station Location Temp. Windchill Dew Point Humidity Wind Precip. Elev Updated Type